Terminal Aerodrome Forecast
Issued by NWS

Home | Current Version | Previous Version | Text Only | Print | Product List | Glossary Off
Versions: 1 2 3 4 5 6 7 8 9 10 11 12 13 14 15 16

353
FTUS43 KICT 281143
TAFCNU
TAF
KCNU 281143Z 2812/2912 33005KT P6SM SCT250
      TEMPO 2812/2814 4SM BR
     FM281700 34007KT P6SM SCT035
     FM282300 04004KT P6SM SCT045 BKN250=

USA.gov is the U.S. government's official web portal to all federal, state and local government web resources and services.